createdAt,value
2023-05-14T00:01:18.129Z,51752.81
2023-05-14T00:03:46.507Z,51764.84
2023-05-14T00:06:14.878Z,51790.91
2023-05-14T00:08:43.415Z,51724.72
2023-05-14T00:11:13.148Z,51774.88
2023-05-14T00:13:41.502Z,51796.94
2023-05-14T00:16:09.921Z,51776.88
2023-05-14T00:18:38.442Z,51792.94
2023-05-14T00:21:07.892Z,51774.88
2023-05-14T00:23:36.538Z,51790.91
2023-05-14T00:26:05.348Z,51813.00
2023-05-14T00:28:35.060Z,51802.97
2023-05-14T00:31:03.750Z,51772.88
2023-05-14T00:33:32.366Z,51780.91
2023-05-14T00:36:00.730Z,51776.88
2023-05-14T00:38:29.145Z,51804.97
2023-05-14T00:40:57.914Z,51764.84
2023-05-14T00:43:26.486Z,51821.00
2023-05-14T00:45:56.504Z,51758.81
2023-05-14T00:48:26.029Z,51756.81
2023-05-14T00:50:54.625Z,51736.75
2023-05-14T00:53:23.404Z,51837.06
2023-05-14T00:55:52.265Z,51831.03
2023-05-14T00:58:20.933Z,51804.97
2023-05-14T01:00:49.315Z,51790.91
2023-05-14T01:03:19.200Z,51800.94
2023-05-14T01:06:05.205Z,51784.91
2023-05-14T01:08:41.647Z,51800.94
2023-05-14T01:11:21.277Z,51796.94
2023-05-14T01:14:01.124Z,51831.03
2023-05-14T01:16:31.989Z,51784.91
2023-05-14T01:19:03.314Z,51829.03
2023-05-14T01:21:38.801Z,51800.94
2023-05-14T01:24:08.028Z,51835.06
2023-05-14T01:26:37.732Z,51813.00
2023-05-14T01:29:14.764Z,51796.94
2023-05-14T01:32:33.471Z,51782.91
2023-05-14T01:35:02.692Z,51810.97
2023-05-14T01:37:33.773Z,51851.09
2023-05-14T01:40:03.149Z,51800.94
2023-05-14T01:42:32.261Z,51780.91
2023-05-14T01:45:00.927Z,51804.97
2023-05-14T01:47:29.445Z,51808.97
2023-05-14T01:49:57.865Z,51806.97
2023-05-14T01:52:26.967Z,51800.94
2023-05-14T01:54:58.317Z,51833.06
2023-05-14T01:57:26.805Z,51772.88
2023-05-14T01:59:55.178Z,51837.06
2023-05-14T02:02:23.655Z,51837.06
2023-05-14T02:04:52.432Z,51813.00
2023-05-14T02:07:20.872Z,51831.03
2023-05-14T02:09:49.246Z,51841.06
2023-05-14T02:12:18.996Z,51821.00
2023-05-14T02:14:47.305Z,51825.03
2023-05-14T02:17:16.550Z,51817.00
2023-05-14T02:19:45.511Z,51806.97
2023-05-14T02:22:14.676Z,51861.13
2023-05-14T02:24:43.048Z,51806.97
2023-05-14T02:27:13.038Z,51855.13
2023-05-14T02:29:42.798Z,51857.13
2023-05-14T02:32:11.172Z,51800.94
2023-05-14T02:34:39.690Z,51794.94
2023-05-14T02:37:08.220Z,51829.03
2023-05-14T02:39:36.661Z,51843.09
2023-05-14T02:42:05.610Z,51851.09
2023-05-14T02:44:34.068Z,51845.09
2023-05-14T02:47:04.185Z,51792.94
2023-05-14T02:49:32.692Z,51831.03
2023-05-14T02:52:01.735Z,51829.03
2023-05-14T02:54:30.464Z,51825.03
2023-05-14T02:56:58.958Z,51833.06
2023-05-14T02:59:27.841Z,51845.09
2023-05-14T03:01:56.954Z,51889.22
2023-05-14T03:04:27.194Z,51847.09
2023-05-14T03:06:55.656Z,51839.06
2023-05-14T03:09:23.986Z,51823.03
2023-05-14T03:11:52.338Z,51831.03
2023-05-14T03:14:20.729Z,51843.09
2023-05-14T03:16:49.268Z,51835.06
2023-05-14T03:19:17.696Z,51843.09
2023-05-14T03:21:47.551Z,51845.09
2023-05-14T03:24:16.191Z,51863.16
2023-05-14T03:26:45.985Z,51855.13
2023-05-14T03:29:17.975Z,51883.22
2023-05-14T03:31:46.420Z,51877.19
2023-05-14T03:34:14.855Z,51873.19
2023-05-14T03:36:44.429Z,51833.06
2023-05-14T03:39:15.551Z,51863.16
2023-05-14T03:41:43.977Z,51861.13
2023-05-14T03:44:12.417Z,51865.16
2023-05-14T03:46:40.920Z,51871.16
2023-05-14T03:49:09.358Z,51907.28
2023-05-14T03:51:37.767Z,51869.16
2023-05-14T03:54:07.753Z,51893.25
2023-05-14T03:56:37.738Z,51889.22
2023-05-14T03:59:06.252Z,51849.09
2023-05-14T04:01:34.945Z,51873.19
2023-05-14T04:04:03.375Z,51861.13
2023-05-14T04:06:32.875Z,51867.16
2023-05-14T04:09:04.109Z,51871.16
2023-05-14T04:11:32.482Z,51831.03
2023-05-14T04:14:02.886Z,51863.16
2023-05-14T04:16:31.562Z,51849.09
2023-05-14T04:19:02.312Z,51804.97
2023-05-14T04:21:30.764Z,51839.06
2023-05-14T04:23:59.077Z,51853.13
2023-05-14T04:26:27.788Z,51839.06
2023-05-14T04:28:56.235Z,51823.03
2023-05-14T04:31:26.864Z,51808.97
2023-05-14T04:33:55.401Z,51837.06
2023-05-14T04:36:23.907Z,51813.00
2023-05-14T04:38:52.358Z,51825.03
2023-05-14T04:41:21.270Z,51806.97
2023-05-14T04:43:51.009Z,51817.00
2023-05-14T04:46:20.594Z,51780.91
2023-05-14T04:48:51.771Z,51782.91
2023-05-14T04:51:20.438Z,51823.03
2023-05-14T04:53:49.178Z,51788.91
2023-05-14T04:56:18.995Z,51776.88
2023-05-14T04:58:47.453Z,51766.84
2023-05-14T05:01:16.072Z,51813.00
2023-05-14T05:03:44.772Z,51776.88
2023-05-14T05:06:14.540Z,51780.91
2023-05-14T05:08:43.117Z,51764.84
2023-05-14T05:11:11.579Z,51782.91
2023-05-14T05:13:39.916Z,51758.81
2023-05-14T05:16:08.555Z,51776.88
2023-05-14T05:18:39.138Z,51760.84
2023-05-14T05:21:07.811Z,51772.88
2023-05-14T05:23:37.777Z,51764.84
2023-05-14T05:26:06.664Z,51748.78
2023-05-14T05:28:34.979Z,51728.72
2023-05-14T05:31:03.422Z,51672.56
2023-05-14T05:33:32.088Z,51780.91
2023-05-14T05:36:00.399Z,51722.72
2023-05-14T05:38:28.737Z,51724.72
2023-05-14T05:40:58.413Z,51688.63
2023-05-14T05:43:28.419Z,51670.56
2023-05-14T05:45:56.901Z,51622.41
2023-05-14T05:48:25.549Z,51590.31
2023-05-14T05:50:53.954Z,51534.16
2023-05-14T05:53:22.343Z,51520.09
2023-05-14T05:55:51.482Z,51479.97
2023-05-14T05:58:21.373Z,51449.91
2023-05-14T06:00:49.929Z,51407.78
2023-05-14T06:03:18.594Z,51403.75
2023-05-14T06:06:38.144Z,51377.69
2023-05-14T06:09:06.886Z,51371.66
2023-05-14T06:11:35.383Z,51373.66
2023-05-14T06:14:05.776Z,51337.56
2023-05-14T06:16:34.906Z,51331.53
2023-05-14T06:19:03.387Z,51309.47
2023-05-14T06:21:31.767Z,51271.38
2023-05-14T06:24:00.188Z,51271.38
2023-05-14T06:26:28.566Z,51285.41
2023-05-14T06:28:56.970Z,51253.31
2023-05-14T06:31:26.791Z,51275.38
2023-05-14T06:33:55.412Z,51281.41
2023-05-14T06:36:23.781Z,51259.34
2023-05-14T06:38:52.069Z,51247.28
2023-05-14T06:41:21.157Z,51245.28
2023-05-14T06:43:49.520Z,51259.34
2023-05-14T06:46:17.845Z,51243.28
2023-05-14T06:48:47.863Z,51279.41
2023-05-14T06:51:18.942Z,51253.31
2023-05-14T06:53:48.884Z,51241.28
2023-05-14T06:56:17.318Z,51183.13
2023-05-14T06:58:45.713Z,51221.22
2023-05-14T07:01:14.143Z,51191.13
2023-05-14T07:03:42.784Z,51181.09
2023-05-14T07:06:13.708Z,51201.16
2023-05-14T07:08:42.152Z,51241.28
2023-05-14T07:11:10.444Z,51229.25
2023-05-14T07:13:38.803Z,51155.03
2023-05-14T07:16:08.973Z,51299.44
2023-05-14T07:18:37.704Z,51279.41
2023-05-14T07:21:07.112Z,51243.28
2023-05-14T07:23:38.206Z,51229.25
2023-05-14T07:26:07.533Z,51265.34
2023-05-14T07:28:36.465Z,51289.41
2023-05-14T07:31:08.796Z,51321.50
2023-05-14T07:33:37.469Z,51355.63
2023-05-14T07:36:06.557Z,51371.66
2023-05-14T07:38:36.420Z,51367.66
2023-05-14T07:41:05.328Z,51369.66
2023-05-14T07:43:33.670Z,51357.63
2023-05-14T07:46:02.036Z,51357.63
2023-05-14T07:48:30.409Z,51351.59
2023-05-14T07:50:58.826Z,51365.66
2023-05-14T07:53:27.150Z,51353.63
2023-05-14T07:55:56.892Z,51403.75
2023-05-14T07:58:26.733Z,51325.53
2023-05-14T08:00:56.489Z,51293.44
2023-05-14T08:03:24.943Z,51245.28
2023-05-14T08:05:53.740Z,51255.31
2023-05-14T08:08:22.076Z,51227.25
2023-05-14T08:10:50.472Z,51297.44
2023-05-14T08:13:20.523Z,51155.03
2023-05-14T08:15:48.959Z,51155.03
2023-05-14T08:18:17.301Z,51221.22
2023-05-14T08:20:45.818Z,51098.88
2023-05-14T08:23:14.203Z,51134.97
2023-05-14T08:25:42.575Z,51211.19
2023-05-14T08:28:10.902Z,51207.19
2023-05-14T08:30:40.597Z,51116.91
2023-05-14T08:33:09.359Z,51098.88
2023-05-14T08:35:37.807Z,51106.88
2023-05-14T08:38:06.438Z,51132.97
2023-05-14T08:40:36.433Z,51078.81
2023-05-14T08:43:07.002Z,51141.00
2023-05-14T08:45:37.954Z,51167.06
2023-05-14T08:48:09.720Z,51237.28
2023-05-14T08:50:38.338Z,51219.22
2023-05-14T08:53:07.815Z,51175.09
2023-05-14T08:55:37.851Z,51237.28
2023-05-14T08:58:06.180Z,51066.78
2023-05-14T09:00:34.771Z,51074.81
2023-05-14T09:03:05.017Z,51122.94
2023-05-14T09:05:34.897Z,51038.69
2023-05-14T09:08:03.393Z,51010.63
2023-05-14T09:10:32.442Z,51052.72
2023-05-14T09:13:01.028Z,51026.66
2023-05-14T09:15:30.559Z,50996.56
2023-05-14T09:17:59.055Z,51102.88
2023-05-14T09:20:28.444Z,51161.03
2023-05-14T09:22:59.860Z,51050.72
2023-05-14T09:25:29.019Z,51024.66
2023-05-14T09:27:58.964Z,50942.41
2023-05-14T09:30:27.887Z,51102.88
2023-05-14T09:32:56.296Z,50972.50
2023-05-14T09:35:26.101Z,51014.63
2023-05-14T09:37:55.854Z,51120.94
2023-05-14T09:40:25.969Z,51006.59
2023-05-14T09:42:54.611Z,51000.59
2023-05-14T09:45:24.496Z,51112.91
2023-05-14T09:47:53.316Z,51020.66
2023-05-14T09:50:22.633Z,50964.47
2023-05-14T09:52:51.273Z,50918.34
2023-05-14T09:55:21.154Z,51038.69
2023-05-14T09:57:50.954Z,50930.38
2023-05-14T10:00:19.976Z,50942.41
2023-05-14T10:02:49.447Z,50952.44
2023-05-14T10:05:19.030Z,50990.56
2023-05-14T10:07:49.539Z,50966.50
2023-05-14T10:10:21.005Z,50910.31
2023-05-14T10:12:54.120Z,50902.31
2023-05-14T10:15:30.917Z,50916.34
2023-05-14T10:18:04.771Z,50978.53
2023-05-14T10:20:34.042Z,50942.41
2023-05-14T10:23:02.722Z,50918.34
2023-05-14T10:25:31.693Z,50894.28
2023-05-14T10:28:02.003Z,50994.56
2023-05-14T10:30:30.448Z,50926.38
2023-05-14T10:33:09.381Z,50900.31
2023-05-14T10:35:53.478Z,50822.06
2023-05-14T10:38:24.037Z,50890.28
2023-05-14T10:40:54.211Z,50892.28
2023-05-14T10:43:27.919Z,50938.41
2023-05-14T10:45:57.340Z,50918.34
2023-05-14T10:48:26.954Z,50854.16
2023-05-14T10:50:56.138Z,50918.34
2023-05-14T10:53:33.191Z,50914.34
2023-05-14T10:56:05.840Z,50914.34
2023-05-14T10:58:38.430Z,50940.41
2023-05-14T11:01:08.808Z,50864.19
2023-05-14T11:03:42.338Z,50894.28
2023-05-14T11:06:12.445Z,50918.34
2023-05-14T11:08:41.590Z,50892.28
2023-05-14T11:11:10.972Z,50876.22
2023-05-14T11:13:42.387Z,50838.13
2023-05-14T11:16:22.692Z,50864.19
2023-05-14T11:19:02.012Z,50884.25
2023-05-14T11:21:31.559Z,50848.16
2023-05-14T11:24:01.153Z,50932.38
2023-05-14T11:26:30.154Z,50872.22
2023-05-14T11:29:00.011Z,50858.19
2023-05-14T11:31:28.809Z,50846.16
2023-05-14T11:33:57.274Z,50838.13
2023-05-14T11:36:25.709Z,50914.34
2023-05-14T11:38:54.023Z,50866.19
2023-05-14T11:41:22.974Z,50862.19
2023-05-14T11:43:51.703Z,50858.19
2023-05-14T11:46:22.291Z,50753.88
2023-05-14T11:48:50.780Z,50850.16
2023-05-14T11:51:19.133Z,50834.13
2023-05-14T11:53:47.958Z,50818.06
2023-05-14T11:56:16.368Z,50812.06
2023-05-14T11:58:49.109Z,50836.13
2023-05-14T12:01:17.880Z,50822.06
2023-05-14T12:03:47.844Z,50812.06
2023-05-14T12:06:16.447Z,50822.06
2023-05-14T12:08:44.841Z,50822.06
2023-05-14T12:11:13.211Z,50862.19
2023-05-14T12:13:41.609Z,50808.03
2023-05-14T12:16:10.134Z,50775.94
2023-05-14T12:18:38.753Z,50834.13
2023-05-14T12:21:09.001Z,50792.00
2023-05-14T12:23:39.829Z,50820.06
2023-05-14T12:26:09.840Z,50804.03
2023-05-14T12:28:43.071Z,50840.13
2023-05-14T12:31:11.777Z,50806.03
2023-05-14T12:33:40.474Z,50862.19
2023-05-14T12:36:21.269Z,50846.16
2023-05-14T12:38:50.693Z,50826.09
2023-05-14T12:41:19.251Z,50824.09
2023-05-14T12:43:49.907Z,50864.19
2023-05-14T12:46:18.600Z,50840.13
2023-05-14T12:48:47.123Z,50814.06
2023-05-14T12:51:16.808Z,50757.91
2023-05-14T12:53:45.282Z,50836.13
2023-05-14T12:56:14.834Z,50848.16
2023-05-14T12:58:43.216Z,50779.97
2023-05-14T13:01:11.606Z,50761.91
2023-05-14T13:03:40.009Z,50832.09
2023-05-14T13:06:09.070Z,50790.00
2023-05-14T13:08:40.112Z,50741.84
2023-05-14T13:11:09.337Z,50769.94
2023-05-14T13:13:37.980Z,50792.00
2023-05-14T13:16:07.293Z,50753.88
2023-05-14T13:18:35.885Z,50739.84
2023-05-14T13:21:06.322Z,50783.97
2023-05-14T13:23:34.671Z,50790.00
2023-05-14T13:26:04.458Z,51010.63
2023-05-14T13:28:32.860Z,50916.34
2023-05-14T13:31:07.304Z,51008.59
2023-05-14T13:33:36.346Z,51068.78
2023-05-14T13:36:05.626Z,51116.91
2023-05-14T13:38:35.383Z,51126.94
2023-05-14T13:41:05.528Z,51145.00
2023-05-14T13:43:34.848Z,51179.09
2023-05-14T13:46:04.873Z,51155.03
2023-05-14T13:48:33.779Z,51185.13
2023-05-14T13:51:02.139Z,51155.03
2023-05-14T13:53:30.720Z,51138.97
2023-05-14T13:56:01.351Z,51205.19
2023-05-14T13:58:31.219Z,51185.13
2023-05-14T14:00:59.525Z,51219.22
2023-05-14T14:03:27.892Z,51191.13
2023-05-14T14:05:56.274Z,51175.09
2023-05-14T14:08:24.802Z,51171.06
2023-05-14T14:10:55.090Z,51187.13
2023-05-14T14:13:24.222Z,51122.94
2023-05-14T14:15:54.049Z,51110.91
2023-05-14T14:18:22.483Z,51108.91
2023-05-14T14:20:51.049Z,51092.84
2023-05-14T14:23:19.453Z,51112.91
2023-05-14T14:25:48.020Z,51074.81
2023-05-14T14:28:16.577Z,51090.84
2023-05-14T14:30:45.034Z,51136.97
2023-05-14T14:33:14.916Z,51151.03
2023-05-14T14:35:43.340Z,51181.09
2023-05-14T14:38:12.391Z,51169.06
2023-05-14T14:40:40.800Z,51233.25
2023-05-14T14:43:09.153Z,51245.28
2023-05-14T14:45:37.702Z,51279.41
2023-05-14T14:48:25.788Z,51251.31
2023-05-14T14:50:54.595Z,51247.28
2023-05-14T14:53:24.124Z,51279.41
2023-05-14T14:55:52.941Z,51261.34
2023-05-14T14:58:21.995Z,51259.34
2023-05-14T15:00:52.227Z,51243.28
2023-05-14T15:03:21.167Z,51229.25
2023-05-14T15:05:51.679Z,51219.22
2023-05-14T15:08:20.730Z,51263.34
2023-05-14T15:10:49.113Z,51235.25
2023-05-14T15:13:17.471Z,51259.34
2023-05-14T15:15:45.843Z,51251.31
2023-05-14T15:18:14.274Z,51263.34
2023-05-14T15:20:42.898Z,51231.25
2023-05-14T15:23:12.736Z,51219.22
2023-05-14T15:25:41.373Z,51239.28
2023-05-14T15:28:10.093Z,51255.31
2023-05-14T15:30:38.458Z,51279.41
2023-05-14T15:33:08.640Z,51255.31
2023-05-14T15:35:37.491Z,51279.41
2023-05-14T15:38:05.863Z,51321.50
2023-05-14T15:40:35.815Z,51299.44
2023-05-14T15:43:04.361Z,51319.50
2023-05-14T15:45:32.884Z,51335.56
2023-05-14T15:48:02.949Z,51305.47
2023-05-14T15:50:31.684Z,51297.44
2023-05-14T15:53:01.293Z,51345.59
2023-05-14T15:55:30.907Z,51307.47
2023-05-14T15:58:00.725Z,51293.44
2023-05-14T16:00:29.144Z,51325.53
2023-05-14T16:02:57.576Z,51279.41
2023-05-14T16:05:26.106Z,51305.47
2023-05-14T16:07:54.850Z,51297.44
2023-05-14T16:10:23.795Z,51245.28
2023-05-14T16:12:52.355Z,51255.31
2023-05-14T16:15:22.087Z,51251.31
2023-05-14T16:17:50.577Z,51291.44
2023-05-14T16:20:19.316Z,51257.31
2023-05-14T16:22:47.970Z,51243.28
2023-05-14T16:25:18.494Z,51251.31
2023-05-14T16:27:47.297Z,51259.34
2023-05-14T16:30:15.792Z,51255.31
2023-05-14T16:32:48.419Z,51295.44
2023-05-14T16:35:17.321Z,51263.34
2023-05-14T16:37:45.977Z,51273.38
2023-05-14T16:40:15.971Z,51219.22
2023-05-14T16:42:45.503Z,51241.28
2023-05-14T16:45:14.946Z,51257.31
2023-05-14T16:47:44.760Z,51225.22
2023-05-14T16:50:13.408Z,51245.28
2023-05-14T16:52:42.101Z,51205.19
2023-05-14T16:55:10.799Z,51221.22
2023-05-14T16:57:39.167Z,51275.38
2023-05-14T17:00:09.340Z,51247.28
2023-05-14T17:02:38.505Z,51253.31
2023-05-14T17:05:09.529Z,51227.25
2023-05-14T17:07:40.019Z,51271.38
2023-05-14T17:10:09.424Z,51213.19
2023-05-14T17:12:37.944Z,51273.38
2023-05-14T17:15:08.111Z,51219.22
2023-05-14T17:17:36.723Z,51201.16
2023-05-14T17:20:06.817Z,51251.31
2023-05-14T17:22:38.906Z,51281.41
2023-05-14T17:25:09.067Z,51273.38
2023-05-14T17:27:37.757Z,51303.47
2023-05-14T17:30:07.354Z,51279.41
2023-05-14T17:32:36.296Z,51265.34
2023-05-14T17:35:05.375Z,51287.41
2023-05-14T17:37:37.003Z,51269.38
2023-05-14T17:40:06.456Z,51321.50
2023-05-14T17:42:34.973Z,51311.50
2023-05-14T17:45:03.331Z,51333.56
2023-05-14T17:47:32.110Z,51293.44
2023-05-14T17:50:00.555Z,51331.53
2023-05-14T17:52:28.929Z,51321.50
2023-05-14T17:54:58.886Z,51353.63
2023-05-14T17:57:27.309Z,51347.59
2023-05-14T17:59:55.768Z,51337.56
2023-05-14T18:02:24.210Z,51341.56
2023-05-14T18:04:52.545Z,51365.66
2023-05-14T18:07:22.933Z,51375.69
2023-05-14T18:09:51.584Z,51357.63
2023-05-14T18:12:21.499Z,51339.56
2023-05-14T18:14:49.907Z,51425.81
2023-05-14T18:17:18.397Z,51379.69
2023-05-14T18:19:47.082Z,51403.75
2023-05-14T18:22:15.977Z,51385.72
2023-05-14T18:24:45.097Z,51363.63
2023-05-14T18:27:13.606Z,51407.78
2023-05-14T18:29:43.781Z,51377.69
2023-05-14T18:32:12.149Z,51381.69
2023-05-14T18:34:40.669Z,51425.81
2023-05-14T18:37:09.826Z,51385.72
2023-05-14T18:39:38.213Z,51421.81
2023-05-14T18:42:07.478Z,51445.88
2023-05-14T18:44:36.133Z,51445.88
2023-05-14T18:47:06.367Z,51405.75
2023-05-14T18:49:34.763Z,51409.78
2023-05-14T18:52:03.644Z,51415.78
2023-05-14T18:54:32.275Z,51459.94
2023-05-14T18:57:04.700Z,51467.94
2023-05-14T18:59:33.166Z,51423.81
2023-05-14T19:02:01.836Z,51419.81
2023-05-14T19:04:33.425Z,51429.84
2023-05-14T19:07:02.027Z,51471.97
2023-05-14T19:09:30.412Z,51393.72
2023-05-14T19:11:59.057Z,51451.91
2023-05-14T19:14:27.697Z,51439.88
2023-05-14T19:16:57.123Z,51431.84
2023-05-14T19:19:25.562Z,51488.00
2023-05-14T19:21:55.372Z,51471.97
2023-05-14T19:24:23.816Z,51469.97
2023-05-14T19:26:53.687Z,51508.06
2023-05-14T19:29:22.180Z,51500.03
2023-05-14T19:31:50.854Z,51508.06
2023-05-14T19:34:19.224Z,51510.06
2023-05-14T19:36:47.695Z,51479.97
2023-05-14T19:39:17.385Z,51516.09
2023-05-14T19:41:45.881Z,51449.91
2023-05-14T19:44:14.480Z,51494.03
2023-05-14T19:46:43.355Z,51477.97
2023-05-14T19:49:13.255Z,51510.06
2023-05-14T19:51:42.256Z,51467.94
2023-05-14T19:54:11.453Z,51492.03
2023-05-14T20:25:57.855Z,51540.16
2023-05-14T20:44:05.530Z,51544.19
2023-05-14T20:53:44.424Z,51552.19
2023-05-14T20:56:23.144Z,51500.03
2023-05-14T20:58:53.209Z,51520.09
2023-05-14T21:01:22.789Z,51534.16
2023-05-14T21:03:53.937Z,51524.13
2023-05-14T21:06:23.781Z,51516.09
2023-05-14T21:08:53.063Z,51508.06
2023-05-14T21:11:25.128Z,51479.97
2023-05-14T21:13:57.283Z,51538.16
2023-05-14T21:16:26.395Z,51528.13
2023-05-14T21:19:05.594Z,51540.16
2023-05-14T21:21:34.804Z,51542.16
2023-05-14T21:24:03.954Z,51522.13
2023-05-14T21:26:33.752Z,51538.16
2023-05-14T21:29:07.353Z,51538.16
2023-05-14T21:31:37.278Z,51546.19
2023-05-14T21:34:07.840Z,51512.09
2023-05-14T21:36:36.320Z,51516.09
2023-05-14T21:39:05.421Z,51512.09
2023-05-14T21:41:33.865Z,51536.16
2023-05-14T21:44:02.213Z,51596.34
2023-05-14T21:46:31.267Z,51506.06
2023-05-14T21:48:59.726Z,51516.09
2023-05-14T21:51:29.806Z,51516.09
2023-05-14T21:53:58.181Z,51540.16
2023-05-14T21:56:27.486Z,51558.22
2023-05-14T21:58:55.972Z,51524.13
2023-05-14T22:01:24.830Z,51568.25
2023-05-14T22:03:54.154Z,51530.13
2023-05-14T22:06:23.668Z,51534.16
2023-05-14T22:08:53.380Z,51560.22
2023-05-14T22:11:22.324Z,51530.13
2023-05-14T22:13:50.708Z,51516.09
2023-05-14T22:16:19.099Z,51516.09
2023-05-14T22:18:47.909Z,51554.22
2023-05-14T22:21:16.349Z,51548.19
2023-05-14T22:23:45.273Z,51530.13
2023-05-14T22:26:15.906Z,51566.25
2023-05-14T22:28:44.303Z,51556.22
2023-05-14T22:31:12.692Z,51532.13
2023-05-14T22:33:41.275Z,51548.19
2023-05-14T22:36:10.667Z,51508.06
2023-05-14T22:38:41.106Z,51594.31
2023-05-14T22:41:09.510Z,51520.09
2023-05-14T22:43:39.208Z,51536.16
2023-05-14T22:46:07.666Z,51530.13
2023-05-14T22:48:36.162Z,51556.22
2023-05-14T22:51:04.578Z,51536.16
2023-05-14T22:53:32.924Z,51516.09
2023-05-14T22:56:01.263Z,51516.09
2023-05-14T22:58:29.663Z,51532.13
2023-05-14T23:00:59.724Z,51522.13
2023-05-14T23:03:28.517Z,51516.09
2023-05-14T23:05:56.887Z,51490.00
2023-05-14T23:08:25.225Z,51492.03
2023-05-14T23:10:53.743Z,51522.13
2023-05-14T23:13:22.198Z,51530.13
2023-05-14T23:15:50.758Z,51494.03
2023-05-14T23:18:20.913Z,51508.06
2023-05-14T23:20:49.630Z,51500.03
2023-05-14T23:23:18.038Z,51526.13
2023-05-14T23:25:46.377Z,51536.16
2023-05-14T23:28:14.924Z,51534.16
2023-05-14T23:30:43.314Z,51506.06
2023-05-14T23:33:11.770Z,51500.03
2023-05-14T23:35:42.406Z,51500.03
2023-05-14T23:38:10.821Z,51510.06
2023-05-14T23:40:39.125Z,51492.03
2023-05-14T23:43:07.515Z,51504.06
2023-05-14T23:45:36.224Z,51498.03
2023-05-14T23:48:05.410Z,51528.13
2023-05-14T23:50:33.826Z,51506.06
2023-05-14T23:53:03.804Z,51465.94
2023-05-14T23:55:32.254Z,51550.19
2023-05-14T23:58:00.692Z,51516.09
